Portada
METAR-TAF:

METAR-TAF

Aeropuertos :

Aeropuerto de Biarritz-Anglet-Bayonne

Biarritz, Francia

latitud: 43-28N, longitud: 001-32W, altitud: 75 m

Observación

El informe se hizo hace 42 minutos, a las 02:30 UTC
Viento 3 kt con dirección variable
Temperatura 9°C
Humedad 76%
Presión 1019 hPa
Visibilidad 10 km o más
sin nubes por debajo de 1500 m y sin presencia de cumulonimbus.

METAR: LFBZ 240230Z AUTO VRB03KT CAVOK 09/05 Q1019 NOSIG

Hora: 04:12 (03:12 UTC)

Pronóstico

El informe se hizo hace 4 horas y 12 minutos, a las 23:00 UTC
Pronóstico válido del 24 a las 00 UTC al 24 a las 24 UTC
Viento 7 kt del sur
Visibilidad 10 km o más
sin nubes por debajo de 1500 m y sin presencia de cumulonimbus.

TAF: LFBZ 232300Z 2400/2424 18007KT CAVOK

Observaciones y pronósticos meteorológicos de más de 4000 aeropuertos (mensajes METAR y TAF).

Los puntos amarillos y rojos representan las estaciones disponibles.

Ponga el ratón en el punto deseado para ver el nombre de la estación.

Haga clic para ver las observaciones y los pronósticos meteorológicos.

Para cambiar el mapa : haga clic en los botones verdes con una cruz de color negro para hacer un zoom, en el botón verde con un guión para alejar o en las flechas verdes para mapas adyacentes.


METAR-TAF: